createdAt,value
2023-01-22T00:01:25.424Z,1025.3
2023-01-22T00:03:25.481Z,1025.4
2023-01-22T00:05:25.480Z,1025.4
2023-01-22T00:07:25.465Z,1025.4
2023-01-22T00:09:25.434Z,1025.4
2023-01-22T00:11:25.428Z,1025.4
2023-01-22T00:13:25.442Z,1025.5
2023-01-22T00:15:25.435Z,1025.8
2023-01-22T00:17:25.433Z,1026.1
2023-01-22T00:19:25.423Z,1026.1
2023-01-22T00:21:25.409Z,1026.1
2023-01-22T00:23:25.427Z,1026
2023-01-22T00:25:25.478Z,1026.1
2023-01-22T00:27:25.382Z,1026.2
2023-01-22T00:29:25.396Z,1026.2
2023-01-22T00:31:25.477Z,1026.1
2023-01-22T00:33:25.413Z,1026.1
2023-01-22T00:35:25.385Z,1026
2023-01-22T00:37:25.438Z,1026
2023-01-22T00:39:25.391Z,1026
2023-01-22T00:41:25.400Z,1025.9
2023-01-22T00:43:25.411Z,1025.9
2023-01-22T00:45:25.362Z,1025.9
2023-01-22T00:47:25.340Z,1025.8
2023-01-22T00:49:25.377Z,1025.8
2023-01-22T00:51:25.391Z,1025.8
2023-01-22T00:53:25.377Z,1025.9
2023-01-22T00:55:25.354Z,1025.8
2023-01-22T00:57:25.375Z,1025.8
2023-01-22T00:59:25.363Z,1025.7
2023-01-22T01:01:25.454Z,1025.7
2023-01-22T01:03:25.354Z,1025.6
2023-01-22T01:05:25.338Z,1025.5
2023-01-22T01:07:25.700Z,1025.5
2023-01-22T01:09:25.343Z,1025.4
2023-01-22T01:11:25.423Z,1025.3
2023-01-22T01:13:25.368Z,1025.3
2023-01-22T01:15:25.383Z,1025.4
2023-01-22T01:17:25.341Z,1025.4
2023-01-22T01:19:25.314Z,1025.5
2023-01-22T01:21:25.319Z,1025.5
2023-01-22T01:23:25.331Z,1025.5
2023-01-22T01:25:25.361Z,1025.5
2023-01-22T01:27:25.333Z,1025.5
2023-01-22T01:29:25.364Z,1025.6
2023-01-22T01:31:25.540Z,1025.6
2023-01-22T01:33:25.328Z,1025.5
2023-01-22T01:35:25.316Z,1025.4
2023-01-22T01:37:25.326Z,1025.4
2023-01-22T01:39:25.332Z,1025.4
2023-01-22T01:41:25.316Z,1025.3
2023-01-22T01:43:25.319Z,1025.3
2023-01-22T01:45:25.376Z,1025.4
2023-01-22T01:47:25.328Z,1025.5
2023-01-22T01:49:25.302Z,1025.5
2023-01-22T01:51:25.322Z,1025.6
2023-01-22T01:53:25.331Z,1025.5
2023-01-22T01:55:25.315Z,1025.5
2023-01-22T01:57:25.290Z,1025.5
2023-01-22T01:59:25.334Z,1025.6
2023-01-22T02:01:25.297Z,1025.6
2023-01-22T02:03:25.344Z,1025.6
2023-01-22T02:05:25.299Z,1025.5
2023-01-22T02:07:25.276Z,1025.5
2023-01-22T02:09:25.613Z,1025.6
2023-01-22T02:11:25.283Z,1025.6
2023-01-22T02:13:25.277Z,1025.7
2023-01-22T02:15:25.268Z,1025.7
2023-01-22T02:17:25.248Z,1025.8
2023-01-22T02:19:25.279Z,1025.7
2023-01-22T02:21:25.243Z,1025.7
2023-01-22T02:23:25.268Z,1025.7
2023-01-22T02:25:25.232Z,1025.7
2023-01-22T02:27:25.249Z,1025.8
2023-01-22T02:29:25.232Z,1025.8
2023-01-22T02:31:25.302Z,1025.8
2023-01-22T02:33:25.227Z,1025.7
2023-01-22T02:35:25.282Z,1025.7
2023-01-22T02:37:25.224Z,1025.8
2023-01-22T02:39:25.251Z,1025.8
2023-01-22T02:41:25.259Z,1025.8
2023-01-22T02:43:25.253Z,1025.8
2023-01-22T02:45:25.241Z,1025.8
2023-01-22T02:47:25.245Z,1025.7
2023-01-22T02:49:25.221Z,1025.6
2023-01-22T02:51:25.207Z,1025.5
2023-01-22T02:53:25.222Z,1025.5
2023-01-22T02:55:25.193Z,1025.5
2023-01-22T02:57:25.225Z,1025.5
2023-01-22T02:59:25.203Z,1025.4
2023-01-22T03:01:25.187Z,1025.3
2023-01-22T03:03:25.207Z,1025.3
2023-01-22T03:05:25.254Z,1025.3
2023-01-22T03:07:25.194Z,1025.3
2023-01-22T03:09:25.193Z,1025.4
2023-01-22T03:11:25.251Z,1025.4
2023-01-22T03:13:25.195Z,1025.4
2023-01-22T03:15:25.186Z,1025.4
2023-01-22T03:17:25.175Z,1025.4
2023-01-22T03:19:25.184Z,1025.3
2023-01-22T03:21:25.196Z,1025.3
2023-01-22T03:23:25.205Z,1025.3
2023-01-22T03:25:25.170Z,1025.4
2023-01-22T03:27:25.175Z,1025.4
2023-01-22T03:29:25.164Z,1025.5
2023-01-22T03:31:25.363Z,1025.5
2023-01-22T03:33:25.178Z,1025.5
2023-01-22T03:35:25.193Z,1025.6
2023-01-22T03:37:25.143Z,1025.6
2023-01-22T03:39:25.156Z,1025.6
2023-01-22T03:41:25.165Z,1025.6
2023-01-22T03:43:25.140Z,1025.7
2023-01-22T03:45:25.145Z,1025.8
2023-01-22T03:47:25.191Z,1026
2023-01-22T03:49:25.141Z,1026.1
2023-01-22T03:51:25.199Z,1026.1
2023-01-22T03:53:25.142Z,1026
2023-01-22T03:55:25.122Z,1026
2023-01-22T03:57:25.127Z,1026
2023-01-22T03:59:25.133Z,1026
2023-01-22T04:01:25.128Z,1025.9
2023-01-22T04:03:25.128Z,1025.8
2023-01-22T04:05:25.103Z,1025.8
2023-01-22T04:07:25.117Z,1025.8
2023-01-22T04:09:25.089Z,1025.9
2023-01-22T04:11:25.127Z,1025.9
2023-01-22T04:13:25.103Z,1025.9
2023-01-22T04:15:25.092Z,1025.8
2023-01-22T04:17:26.792Z,1025.8
2023-01-22T04:19:25.114Z,1025.8
2023-01-22T04:21:25.098Z,1025.9
2023-01-22T04:23:25.098Z,1025.9
2023-01-22T04:25:25.116Z,1025.9
2023-01-22T04:27:25.102Z,1025.8
2023-01-22T04:29:25.092Z,1025.8
2023-01-22T04:31:25.160Z,1025.9
2023-01-22T04:33:25.091Z,1025.8
2023-01-22T04:35:25.084Z,1025.8
2023-01-22T04:37:25.063Z,1025.8
2023-01-22T04:39:25.071Z,1025.7
2023-01-22T04:41:25.076Z,1025.7
2023-01-22T04:43:25.060Z,1025.6
2023-01-22T04:45:25.145Z,1025.6
2023-01-22T04:47:25.099Z,1025.6
2023-01-22T04:49:25.076Z,1025.5
2023-01-22T04:51:25.179Z,1025.5
2023-01-22T04:53:25.056Z,1025.5
2023-01-22T04:55:25.068Z,1025.6
2023-01-22T04:57:25.039Z,1025.6
2023-01-22T04:59:25.063Z,1025.6
2023-01-22T05:01:25.084Z,1025.6
2023-01-22T05:03:25.071Z,1025.6
2023-01-22T05:05:25.043Z,1025.5
2023-01-22T05:07:25.052Z,1025.4
2023-01-22T05:09:25.119Z,1025.4
2023-01-22T05:11:25.021Z,1025.3
2023-01-22T05:13:25.021Z,1025.2
2023-01-22T05:15:25.463Z,1025.1
2023-01-22T05:17:25.062Z,1025
2023-01-22T05:19:25.075Z,1025
2023-01-22T05:21:25.037Z,1024.9
2023-01-22T05:23:25.047Z,1024.9
2023-01-22T05:25:25.013Z,1025
2023-01-22T05:27:24.993Z,1025
2023-01-22T05:29:25.014Z,1025
2023-01-22T05:31:25.060Z,1024.9
2023-01-22T05:33:25.017Z,1024.8
2023-01-22T05:35:25.005Z,1024.9
2023-01-22T05:37:25.011Z,1024.9
2023-01-22T05:39:24.989Z,1024.9
2023-01-22T05:41:25.002Z,1024.9
2023-01-22T05:43:25.008Z,1025
2023-01-22T05:45:25.019Z,1025.1
2023-01-22T05:47:24.989Z,1025.1
2023-01-22T05:49:25.006Z,1025.2
2023-01-22T05:51:25.077Z,1025.2
2023-01-22T05:53:24.982Z,1025.3
2023-01-22T05:55:24.975Z,1025.2
2023-01-22T05:57:24.984Z,1025.2
2023-01-22T05:59:24.991Z,1025.3
2023-01-22T06:01:24.965Z,1025.4
2023-01-22T06:03:25.020Z,1025.3
2023-01-22T06:05:25.049Z,1025.3
2023-01-22T06:07:25.023Z,1025.3
2023-01-22T06:09:25.010Z,1025.4
2023-01-22T06:11:24.955Z,1025.4
2023-01-22T06:13:24.978Z,1025.4
2023-01-22T06:15:24.944Z,1025.4
2023-01-22T06:17:25.005Z,1025.3
2023-01-22T06:19:24.936Z,1025.3
2023-01-22T06:21:24.928Z,1025.3
2023-01-22T06:23:24.961Z,1025.3
2023-01-22T06:25:24.942Z,1025.2
2023-01-22T06:27:24.951Z,1025.2
2023-01-22T06:29:24.931Z,1025.3
2023-01-22T06:31:25.078Z,1025.4
2023-01-22T06:33:24.951Z,1025.3
2023-01-22T06:35:24.967Z,1025.2
2023-01-22T06:37:24.964Z,1025.2
2023-01-22T06:39:24.937Z,1025.2
2023-01-22T06:41:24.928Z,1025.2
2023-01-22T06:43:24.910Z,1025.1
2023-01-22T06:45:24.912Z,1025.1
2023-01-22T06:47:25.181Z,1025.1
2023-01-22T06:49:24.896Z,1025.1
2023-01-22T06:51:24.955Z,1025.1
2023-01-22T06:53:24.947Z,1025.1
2023-01-22T06:55:24.891Z,1025.1
2023-01-22T06:57:24.982Z,1025.1
2023-01-22T06:59:24.904Z,1025.2
2023-01-22T07:01:24.991Z,1025
2023-01-22T07:03:24.944Z,1024.9
2023-01-22T07:05:24.903Z,1024.8
2023-01-22T07:07:24.899Z,1024.8
2023-01-22T07:09:24.868Z,1024.7
2023-01-22T07:11:24.859Z,1024.7
2023-01-22T07:13:24.896Z,1024.7
2023-01-22T07:15:24.853Z,1024.6
2023-01-22T07:17:24.874Z,1024.5
2023-01-22T07:19:24.896Z,1024.4
2023-01-22T07:21:24.876Z,1024.4
2023-01-22T07:23:24.867Z,1024.4
2023-01-22T07:25:24.870Z,1024.4
2023-01-22T07:27:24.911Z,1024.3
2023-01-22T07:29:24.868Z,1024.5
2023-01-22T07:31:24.931Z,1024.7
2023-01-22T07:33:24.857Z,1024.7
2023-01-22T07:35:24.842Z,1024.6
2023-01-22T07:37:24.871Z,1024.7
2023-01-22T07:39:24.843Z,1024.7
2023-01-22T07:41:26.242Z,1024.6
2023-01-22T07:43:24.832Z,1024.7
2023-01-22T07:45:24.838Z,1024.7
2023-01-22T07:47:24.829Z,1024.8
2023-01-22T07:49:25.152Z,1024.8
2023-01-22T07:51:24.919Z,1024.7
2023-01-22T07:53:24.826Z,1024.6
2023-01-22T07:55:24.835Z,1024.6
2023-01-22T07:57:24.842Z,1024.6
2023-01-22T07:59:24.833Z,1024.6
2023-01-22T08:01:24.816Z,1024.7
2023-01-22T08:03:24.830Z,1024.5
2023-01-22T08:05:24.810Z,1024.5
2023-01-22T08:07:26.358Z,1024.5
2023-01-22T08:09:24.956Z,1024.3
2023-01-22T08:11:24.791Z,1024.3
2023-01-22T08:13:24.799Z,1024.1
2023-01-22T08:15:24.802Z,1024.1
2023-01-22T08:17:24.821Z,1024.3
2023-01-22T08:19:24.806Z,1024.2
2023-01-22T08:21:24.805Z,1024.3
2023-01-22T08:23:24.786Z,1024.2
2023-01-22T08:25:24.772Z,1024.1
2023-01-22T08:27:24.758Z,1024.3
2023-01-22T08:29:24.802Z,1024.2
2023-01-22T08:31:28.071Z,1024.2
2023-01-22T08:33:24.759Z,1024.1
2023-01-22T08:35:24.768Z,1024
2023-01-22T08:37:24.757Z,1024.1
2023-01-22T08:39:24.756Z,1024
2023-01-22T08:41:24.779Z,1024
2023-01-22T08:43:24.787Z,1024.1
2023-01-22T08:45:24.877Z,1024
2023-01-22T08:47:24.752Z,1024
2023-01-22T08:49:24.754Z,1024
2023-01-22T08:51:24.881Z,1024.1
2023-01-22T08:53:24.735Z,1024
2023-01-22T08:55:24.763Z,1024
2023-01-22T08:57:24.742Z,1024.1
2023-01-22T08:59:24.713Z,1024.1
2023-01-22T09:01:24.771Z,1023.9
2023-01-22T09:03:24.781Z,1023.8
2023-01-22T09:05:24.758Z,1023.8
2023-01-22T09:07:24.734Z,1023.7
2023-01-22T09:09:24.710Z,1023.7
2023-01-22T09:11:24.752Z,1023.7
2023-01-22T09:13:24.720Z,1023.6
2023-01-22T09:15:24.720Z,1023.7
2023-01-22T09:17:24.682Z,1023.6
2023-01-22T09:19:24.721Z,1023.5
2023-01-22T09:21:24.731Z,1023.5
2023-01-22T09:23:24.714Z,1023.4
2023-01-22T09:25:24.702Z,1023.4
2023-01-22T09:27:24.682Z,1023.4
2023-01-22T09:29:24.717Z,1023.3
2023-01-22T09:31:24.707Z,1023.2
2023-01-22T09:33:24.716Z,1023.2
2023-01-22T09:35:24.727Z,1023.2
2023-01-22T09:37:24.711Z,1023.2
2023-01-22T09:39:24.683Z,1023.2
2023-01-22T09:41:24.696Z,1023.2
2023-01-22T09:43:24.667Z,1023.2
2023-01-22T09:45:24.680Z,1023.2
2023-01-22T09:47:24.662Z,1023.1
2023-01-22T09:49:24.666Z,1023.2
2023-01-22T09:51:24.722Z,1023.2
2023-01-22T09:53:24.696Z,1023.2
2023-01-22T09:55:24.661Z,1023.3
2023-01-22T09:57:31.435Z,1023.3
2023-01-22T09:59:24.649Z,1023.4
2023-01-22T10:01:24.768Z,1023.4
2023-01-22T10:03:24.685Z,1023.4
2023-01-22T10:05:24.660Z,1023.4
2023-01-22T10:07:24.652Z,1023.3
2023-01-22T10:09:24.657Z,1023.2
2023-01-22T10:11:24.643Z,1023.2
2023-01-22T10:13:24.668Z,1023.1
2023-01-22T10:15:24.644Z,1022.9
2023-01-22T10:17:24.636Z,1022.9
2023-01-22T10:19:24.633Z,1022.8
2023-01-22T10:21:24.634Z,1022.7
2023-01-22T10:23:24.611Z,1022.8
2023-01-22T10:25:24.607Z,1022.8
2023-01-22T10:27:24.638Z,1022.7
2023-01-22T10:29:24.631Z,1022.8
2023-01-22T10:31:24.710Z,1022.7
2023-01-22T10:33:24.598Z,1022.6
2023-01-22T10:35:24.724Z,1022.6
2023-01-22T10:37:24.621Z,1022.6
2023-01-22T10:39:24.605Z,1022.7
2023-01-22T10:41:24.693Z,1022.7
2023-01-22T10:43:24.611Z,1022.7
2023-01-22T10:45:24.633Z,1022.8
2023-01-22T10:47:24.614Z,1022.8
2023-01-22T10:49:24.623Z,1022.8
2023-01-22T10:51:24.609Z,1022.8
2023-01-22T10:53:24.614Z,1022.8
2023-01-22T10:55:24.887Z,1022.7
2023-01-22T10:57:24.591Z,1022.8
2023-01-22T10:59:24.568Z,1022.7
2023-01-22T11:01:24.625Z,1022.7
2023-01-22T11:03:24.599Z,1022.6
2023-01-22T11:05:24.577Z,1022.6
2023-01-22T11:07:24.595Z,1022.6
2023-01-22T11:09:24.565Z,1022.5
2023-01-22T11:11:24.569Z,1022.3
2023-01-22T11:13:24.576Z,1022.3
2023-01-22T11:15:24.560Z,1022.2
2023-01-22T11:17:24.580Z,1022.2
2023-01-22T11:19:36.198Z,1022.1
2023-01-22T11:21:24.556Z,1022
2023-01-22T11:23:24.549Z,1022.1
2023-01-22T11:25:24.572Z,1022.2
2023-01-22T11:27:24.559Z,1022.2
2023-01-22T11:29:24.531Z,1022.3
2023-01-22T11:31:24.726Z,1022.4
2023-01-22T11:33:24.548Z,1022.5
2023-01-22T11:35:24.583Z,1022.4
2023-01-22T11:37:24.582Z,1022.4
2023-01-22T11:39:24.534Z,1022.5
2023-01-22T11:41:24.537Z,1022.5
2023-01-22T11:43:24.559Z,1022.3
2023-01-22T11:45:24.532Z,1022.2
2023-01-22T11:47:24.527Z,1022.1
2023-01-22T11:49:24.572Z,1022
2023-01-22T11:51:24.598Z,1021.9
2023-01-22T11:53:24.522Z,1021.9
2023-01-22T11:55:24.524Z,1021.9
2023-01-22T11:57:24.777Z,1021.8
2023-01-22T11:59:24.505Z,1021.8
2023-01-22T12:01:24.494Z,1021.7
2023-01-22T12:03:24.551Z,1021.7
2023-01-22T12:05:24.478Z,1021.7
2023-01-22T12:07:24.539Z,1021.8
2023-01-22T12:09:24.533Z,1021.9
2023-01-22T12:11:24.533Z,1022.1
2023-01-22T12:13:24.541Z,1022.2
2023-01-22T12:15:24.541Z,1022.1
2023-01-22T12:17:24.491Z,1022.1
2023-01-22T12:19:24.533Z,1022.1
2023-01-22T12:21:24.488Z,1022.1
2023-01-22T12:23:24.451Z,1022.1
2023-01-22T12:25:24.505Z,1022
2023-01-22T12:27:24.484Z,1021.9
2023-01-22T12:29:24.468Z,1021.7
2023-01-22T12:31:24.565Z,1021.6
2023-01-22T12:33:24.478Z,1021.5
2023-01-22T12:35:24.455Z,1021.4
2023-01-22T12:37:24.477Z,1021.5
2023-01-22T12:39:24.429Z,1021.5
2023-01-22T12:41:24.429Z,1021.6
2023-01-22T12:43:24.475Z,1021.5
2023-01-22T12:45:24.488Z,1021.6
2023-01-22T12:47:24.453Z,1021.6
2023-01-22T12:49:24.407Z,1021.6
2023-01-22T12:51:24.506Z,1021.7
2023-01-22T12:53:24.521Z,1021.7
2023-01-22T12:55:24.460Z,1021.7
2023-01-22T12:57:24.426Z,1021.8
2023-01-22T12:59:24.419Z,1021.8
2023-01-22T13:01:24.515Z,1021.8
2023-01-22T13:03:30.817Z,1021.8
2023-01-22T13:05:24.428Z,1021.7
2023-01-22T13:07:24.425Z,1021.6
2023-01-22T13:09:24.520Z,1021.5
2023-01-22T13:11:24.444Z,1021.5
2023-01-22T13:13:24.490Z,1021.4
2023-01-22T13:15:24.420Z,1021.3
2023-01-22T13:17:24.477Z,1021.3
2023-01-22T13:19:24.462Z,1021.4
2023-01-22T13:21:24.415Z,1021.3
2023-01-22T13:23:24.397Z,1021.3
2023-01-22T13:25:24.459Z,1021.2
2023-01-22T13:27:24.425Z,1021.2
2023-01-22T13:29:26.792Z,1021.2
2023-01-22T13:31:24.497Z,1021.2
2023-01-22T13:33:24.375Z,1021.2
2023-01-22T13:35:24.379Z,1021.2
2023-01-22T13:37:24.400Z,1021.2
2023-01-22T13:39:24.417Z,1021.2
2023-01-22T13:41:24.458Z,1021.2
2023-01-22T13:43:24.361Z,1021.2
2023-01-22T13:45:24.356Z,1021.2
2023-01-22T13:47:24.348Z,1021.2
2023-01-22T13:49:24.366Z,1021.1
2023-01-22T13:51:24.631Z,1021
2023-01-22T13:53:24.459Z,1021
2023-01-22T13:55:24.415Z,1021.1
2023-01-22T13:57:24.368Z,1021.2
2023-01-22T13:59:24.359Z,1021.2
2023-01-22T14:01:24.365Z,1021.3
2023-01-22T14:03:24.332Z,1021.3
2023-01-22T14:05:24.320Z,1021.3
2023-01-22T14:07:24.373Z,1021.2
2023-01-22T14:09:24.356Z,1021.1
2023-01-22T14:11:24.354Z,1021.1
2023-01-22T14:13:24.412Z,1021
2023-01-22T14:15:24.398Z,1021
2023-01-22T14:17:24.349Z,1021
2023-01-22T14:19:24.334Z,1021
2023-01-22T14:21:24.366Z,1021.1
2023-01-22T14:23:24.294Z,1021.2
2023-01-22T14:25:24.341Z,1021.2
2023-01-22T14:27:24.347Z,1021.2
2023-01-22T14:29:24.343Z,1021.1
2023-01-22T14:31:24.639Z,1021.2
2023-01-22T14:33:24.481Z,1021.2
2023-01-22T14:35:24.299Z,1021.3
2023-01-22T14:37:24.278Z,1021.4
2023-01-22T14:39:24.273Z,1021.5
2023-01-22T14:41:24.334Z,1021.5
2023-01-22T14:43:24.386Z,1021.5
2023-01-22T14:45:24.329Z,1021.5
2023-01-22T14:47:24.305Z,1021.6
2023-01-22T14:49:24.330Z,1021.6
2023-01-22T14:51:24.422Z,1021.7
2023-01-22T14:53:24.320Z,1021.7
2023-01-22T14:55:25.473Z,1021.7
2023-01-22T14:57:24.315Z,1021.7
2023-01-22T14:59:24.304Z,1021.7
2023-01-22T15:01:24.320Z,1021.7
2023-01-22T15:03:24.295Z,1021.7
2023-01-22T15:05:24.327Z,1021.7
2023-01-22T15:07:24.344Z,1021.7
2023-01-22T15:09:24.273Z,1021.8
2023-01-22T15:11:24.320Z,1021.8
2023-01-22T15:13:24.367Z,1021.7
2023-01-22T15:15:24.242Z,1021.7
2023-01-22T15:17:24.264Z,1021.7
2023-01-22T15:19:24.323Z,1021.7
2023-01-22T15:21:24.276Z,1021.7
2023-01-22T15:23:24.263Z,1021.6
2023-01-22T15:25:24.353Z,1021.7
2023-01-22T15:27:24.271Z,1021.7
2023-01-22T15:29:24.248Z,1021.7
2023-01-22T15:31:24.307Z,1021.8
2023-01-22T15:33:24.584Z,1021.7
2023-01-22T15:35:24.210Z,1021.7
2023-01-22T15:37:24.241Z,1021.7
2023-01-22T15:39:24.259Z,1021.7
2023-01-22T15:41:24.253Z,1021.7
2023-01-22T15:43:24.247Z,1021.7
2023-01-22T15:45:24.222Z,1021.7
2023-01-22T15:47:24.210Z,1021.7
2023-01-22T15:49:24.260Z,1021.6
2023-01-22T15:51:24.256Z,1021.6
2023-01-22T15:53:24.205Z,1021.5
2023-01-22T15:55:24.197Z,1021.4
2023-01-22T15:57:24.191Z,1021.3
2023-01-22T15:59:24.284Z,1021.2
2023-01-22T16:01:24.263Z,1021.2
2023-01-22T16:03:24.282Z,1021.1
2023-01-22T16:05:24.204Z,1021
2023-01-22T16:07:24.241Z,1021
2023-01-22T16:09:24.306Z,1020.9
2023-01-22T16:11:24.213Z,1020.8
2023-01-22T16:13:24.199Z,1020.7
2023-01-22T16:15:24.188Z,1020.5
2023-01-22T16:17:24.207Z,1020.4
2023-01-22T16:19:24.192Z,1020.3
2023-01-22T16:21:24.182Z,1020.2
2023-01-22T16:23:24.196Z,1020.2
2023-01-22T16:25:24.169Z,1020.1
2023-01-22T16:27:24.182Z,1020
2023-01-22T16:29:24.168Z,1020
2023-01-22T16:31:24.373Z,1019.9
2023-01-22T16:33:24.198Z,1019.8
2023-01-22T16:35:24.144Z,1019.8
2023-01-22T16:37:24.175Z,1019.7
2023-01-22T16:39:24.244Z,1019.7
2023-01-22T16:41:25.285Z,1019.6
2023-01-22T16:43:24.171Z,1019.5
2023-01-22T16:45:24.161Z,1019.5
2023-01-22T16:47:24.128Z,1019.4
2023-01-22T16:49:24.358Z,1019.3
2023-01-22T16:51:25.351Z,1019.3
2023-01-22T16:53:24.208Z,1019.1
2023-01-22T16:55:24.174Z,1019.1
2023-01-22T16:57:24.190Z,1019
2023-01-22T16:59:24.100Z,1019
2023-01-22T17:01:24.194Z,1019.1
2023-01-22T17:03:24.135Z,1018.9
2023-01-22T17:05:24.193Z,1018.8
2023-01-22T17:07:33.466Z,1018.7
2023-01-22T17:09:24.363Z,1018.7
2023-01-22T17:11:24.103Z,1018.6
2023-01-22T17:13:24.144Z,1018.6
2023-01-22T17:15:24.157Z,1018.4
2023-01-22T17:17:24.101Z,1018.3
2023-01-22T17:19:24.175Z,1018.2
2023-01-22T17:21:24.143Z,1018.1
2023-01-22T17:23:24.131Z,1017.9
2023-01-22T17:25:24.109Z,1017.8
2023-01-22T17:27:24.091Z,1017.7
2023-01-22T17:29:24.095Z,1017.5
2023-01-22T17:31:24.187Z,1017.5
2023-01-22T17:33:31.288Z,1017.3
2023-01-22T17:35:24.178Z,1017.3
2023-01-22T17:37:24.112Z,1017.2
2023-01-22T17:39:24.203Z,1017
2023-01-22T17:41:24.103Z,1017
2023-01-22T17:43:24.077Z,1016.8
2023-01-22T17:45:24.101Z,1016.7
2023-01-22T17:47:24.080Z,1016.6
2023-01-22T17:49:24.060Z,1016.5
2023-01-22T17:51:24.096Z,1016.4
2023-01-22T17:53:24.058Z,1016.3
2023-01-22T17:55:24.062Z,1016.2
2023-01-22T17:57:24.060Z,1016.1
2023-01-22T17:59:24.052Z,1016.1
2023-01-22T18:01:24.129Z,1016.1
2023-01-22T18:03:24.015Z,1016
2023-01-22T18:05:24.113Z,1016.1
2023-01-22T18:07:24.042Z,1016
2023-01-22T18:09:24.064Z,1015.9
2023-01-22T18:11:24.025Z,1015.8
2023-01-22T18:13:24.101Z,1015.8
2023-01-22T18:15:24.028Z,1015.8
2023-01-22T18:17:24.018Z,1015.7
2023-01-22T18:19:24.023Z,1015.5
2023-01-22T18:21:24.048Z,1015.5
2023-01-22T18:23:24.028Z,1015.5
2023-01-22T18:25:24.050Z,1015.4
2023-01-22T18:27:23.994Z,1015.4
2023-01-22T18:29:24.018Z,1015.3
2023-01-22T18:31:24.121Z,1015.3
2023-01-22T18:33:23.992Z,1015.3
2023-01-22T18:35:24.370Z,1015.1
2023-01-22T18:37:23.990Z,1015
2023-01-22T18:39:24.295Z,1015
2023-01-22T18:41:24.056Z,1015
2023-01-22T18:43:24.150Z,1015
2023-01-22T18:45:23.975Z,1014.9
2023-01-22T18:47:24.000Z,1015
2023-01-22T18:49:23.987Z,1015.1
2023-01-22T18:51:24.117Z,1015
2023-01-22T18:53:24.015Z,1014.9
2023-01-22T18:55:24.058Z,1014.7
2023-01-22T18:57:23.961Z,1014.8
2023-01-22T18:59:23.986Z,1014.9
2023-01-22T19:01:24.057Z,1014.9
2023-01-22T19:03:24.111Z,1014.7
2023-01-22T19:05:23.963Z,1014.7
2023-01-22T19:07:23.938Z,1014.6
2023-01-22T19:09:23.950Z,1014.5
2023-01-22T19:11:23.943Z,1014.5
2023-01-22T19:13:23.971Z,1014.4
2023-01-22T19:15:23.981Z,1014.4
2023-01-22T19:17:24.032Z,1014.3
2023-01-22T19:19:24.017Z,1014.3
2023-01-22T19:21:23.955Z,1014.2
2023-01-22T19:23:24.038Z,1014.1
2023-01-22T19:25:23.975Z,1014
2023-01-22T19:27:23.973Z,1013.9
2023-01-22T19:29:23.930Z,1013.8
2023-01-22T19:31:24.053Z,1013.8
2023-01-22T19:33:23.959Z,1013.6
2023-01-22T19:35:23.941Z,1013.6
2023-01-22T19:37:23.943Z,1013.5
2023-01-22T19:39:23.927Z,1013.5
2023-01-22T19:41:24.061Z,1013.5
2023-01-22T19:43:23.931Z,1013.5
2023-01-22T19:45:23.921Z,1013.6
2023-01-22T19:47:23.936Z,1013.5
2023-01-22T19:49:23.901Z,1013.5
2023-01-22T19:51:23.978Z,1013.4
2023-01-22T19:53:23.881Z,1013.3
2023-01-22T19:55:23.929Z,1013.3
2023-01-22T19:57:23.895Z,1013.4
2023-01-22T19:59:23.953Z,1013.4
2023-01-22T20:01:23.911Z,1013.5
2023-01-22T20:03:23.920Z,1013.4
2023-01-22T20:05:23.889Z,1013.4
2023-01-22T20:07:23.902Z,1013.3
2023-01-22T20:09:23.953Z,1013.3
2023-01-22T20:11:23.897Z,1013.2
2023-01-22T20:13:23.893Z,1013.1
2023-01-22T20:15:23.891Z,1013.1
2023-01-22T20:17:23.886Z,1013.1
2023-01-22T20:19:23.911Z,1013.1
2023-01-22T20:21:23.953Z,1013
2023-01-22T20:23:25.243Z,1013
2023-01-22T20:25:24.123Z,1012.9
2023-01-22T20:27:23.891Z,1012.9
2023-01-22T20:29:23.857Z,1012.9
2023-01-22T20:31:24.000Z,1012.9
2023-01-22T20:33:23.874Z,1012.8
2023-01-22T20:35:23.917Z,1012.7
2023-01-22T20:37:23.855Z,1012.7
2023-01-22T20:39:23.850Z,1012.7
2023-01-22T20:41:23.879Z,1012.6
2023-01-22T20:43:23.833Z,1012.6
2023-01-22T20:45:23.882Z,1012.5
2023-01-22T20:47:23.812Z,1012.5
2023-01-22T20:49:23.845Z,1012.5
2023-01-22T20:51:24.016Z,1012.4
2023-01-22T20:53:23.826Z,1012.4
2023-01-22T20:55:23.997Z,1012.3
2023-01-22T20:57:23.805Z,1012.3
2023-01-22T20:59:23.818Z,1012.2
2023-01-22T21:01:23.983Z,1012.1
2023-01-22T21:03:23.809Z,1012.1
2023-01-22T21:05:23.805Z,1011.9
2023-01-22T21:07:23.836Z,1011.6
2023-01-22T21:09:23.796Z,1011.6
2023-01-22T21:11:23.822Z,1011.6
2023-01-22T21:13:23.829Z,1011.5
2023-01-22T21:15:23.812Z,1011.4
2023-01-22T21:17:23.797Z,1011.4
2023-01-22T21:19:23.801Z,1011.3
2023-01-22T21:21:23.855Z,1011.2
2023-01-22T21:23:23.829Z,1011.2
2023-01-22T21:25:23.784Z,1011.3
2023-01-22T21:27:23.795Z,1011.3
2023-01-22T21:29:23.786Z,1011.2
2023-01-22T21:31:23.877Z,1011.1
2023-01-22T21:33:23.802Z,1011.1
2023-01-22T21:35:23.829Z,1010.9
2023-01-22T21:37:23.817Z,1010.9
2023-01-22T21:39:23.800Z,1010.8
2023-01-22T21:41:23.815Z,1010.6
2023-01-22T21:43:23.768Z,1010.7
2023-01-22T21:45:23.849Z,1010.7
2023-01-22T21:47:23.815Z,1010.6
2023-01-22T21:49:23.766Z,1010.6
2023-01-22T21:51:23.787Z,1010.6
2023-01-22T21:53:23.722Z,1010.5
2023-01-22T21:55:23.828Z,1010.6
2023-01-22T21:57:23.833Z,1010.6
2023-01-22T21:59:23.823Z,1010.6
2023-01-22T22:01:23.776Z,1010.5
2023-01-22T22:03:23.680Z,1010.4
2023-01-22T22:05:23.747Z,1010.4
2023-01-22T22:07:23.798Z,1010.3
2023-01-22T22:09:23.734Z,1010.2
2023-01-22T22:11:23.727Z,1010.2
2023-01-22T22:13:23.763Z,1010
2023-01-22T22:15:23.826Z,1009.9
2023-01-22T22:17:23.738Z,1009.8
2023-01-22T22:19:23.741Z,1009.6
2023-01-22T22:21:23.718Z,1009.5
2023-01-22T22:23:23.687Z,1009.4
2023-01-22T22:25:23.695Z,1009.3
2023-01-22T22:27:24.340Z,1009.2
2023-01-22T22:29:23.809Z,1009.3
2023-01-22T22:31:23.819Z,1009.4
2023-01-22T22:33:23.741Z,1009.4
2023-01-22T22:35:23.699Z,1009.4
2023-01-22T22:37:23.817Z,1009.4
2023-01-22T22:39:23.727Z,1009.5
2023-01-22T22:41:23.720Z,1009.4
2023-01-22T22:43:25.666Z,1009.4
2023-01-22T22:45:23.702Z,1009.3
2023-01-22T22:47:23.729Z,1009.3
2023-01-22T22:49:23.768Z,1009.2
2023-01-22T22:51:23.751Z,1009.2
2023-01-22T22:53:23.685Z,1009.1
2023-01-22T22:55:23.738Z,1009.1
2023-01-22T22:57:23.703Z,1009.1
2023-01-22T22:59:23.723Z,1009.1
2023-01-22T23:01:23.734Z,1009
2023-01-22T23:03:23.848Z,1008.9
2023-01-22T23:05:23.702Z,1009
2023-01-22T23:07:23.670Z,1008.9
2023-01-22T23:09:23.672Z,1008.9
2023-01-22T23:11:23.660Z,1008.8
2023-01-22T23:13:23.672Z,1008.8
2023-01-22T23:15:23.668Z,1008.7
2023-01-22T23:17:23.664Z,1008.5
2023-01-22T23:19:23.678Z,1008.5
2023-01-22T23:21:23.689Z,1008.4
2023-01-22T23:23:23.663Z,1008.2
2023-01-22T23:25:23.751Z,1008.1
2023-01-22T23:27:23.639Z,1007.9
2023-01-22T23:29:23.653Z,1007.9
2023-01-22T23:31:23.732Z,1007.9
2023-01-22T23:33:23.641Z,1007.8
2023-01-22T23:35:23.663Z,1007.9
2023-01-22T23:37:23.651Z,1007.8
2023-01-22T23:39:23.629Z,1007.7
2023-01-22T23:41:23.650Z,1007.7
2023-01-22T23:43:23.607Z,1007.7
2023-01-22T23:45:23.630Z,1007.7
2023-01-22T23:47:23.623Z,1007.6
2023-01-22T23:49:23.648Z,1007.5
2023-01-22T23:51:23.656Z,1007.5
2023-01-22T23:53:23.608Z,1007.5
2023-01-22T23:55:23.860Z,1007.6
2023-01-22T23:57:23.608Z,1007.8
2023-01-22T23:59:23.579Z,1007.8
